createdAt,value
2024-02-19T00:00:21.742Z,971.72
2024-02-19T00:01:21.913Z,971.72
2024-02-19T00:02:21.681Z,971.71
2024-02-19T00:03:21.663Z,971.72
2024-02-19T00:04:21.709Z,971.71
2024-02-19T00:05:21.805Z,971.71
2024-02-19T00:06:21.640Z,971.67
2024-02-19T00:07:21.691Z,971.67
2024-02-19T00:08:21.604Z,971.72
2024-02-19T00:09:21.719Z,971.70
2024-02-19T00:10:21.720Z,971.73
2024-02-19T00:11:21.661Z,971.73
2024-02-19T00:12:21.608Z,971.72
2024-02-19T00:13:21.600Z,971.71
2024-02-19T00:14:21.598Z,971.72
2024-02-19T00:15:21.544Z,971.74
2024-02-19T00:16:21.628Z,971.74
2024-02-19T00:17:21.595Z,971.75
2024-02-19T00:18:21.577Z,971.74
2024-02-19T00:19:21.661Z,971.74
2024-02-19T00:20:21.489Z,971.74
2024-02-19T00:21:21.499Z,971.73
2024-02-19T00:22:21.527Z,971.79
2024-02-19T00:23:21.488Z,971.81
2024-02-19T00:24:21.473Z,971.82
2024-02-19T00:25:21.501Z,971.83
2024-02-19T00:26:21.426Z,971.84
2024-02-19T00:27:21.424Z,971.86
2024-02-19T00:28:21.491Z,971.88
2024-02-19T00:29:21.428Z,971.90
2024-02-19T00:30:21.391Z,971.89
2024-02-19T00:31:21.429Z,971.92
2024-02-19T00:32:21.474Z,971.93
2024-02-19T00:33:21.454Z,971.95
2024-02-19T00:34:21.356Z,971.96
2024-02-19T00:35:21.424Z,971.95
2024-02-19T00:36:21.376Z,971.95
2024-02-19T00:37:21.373Z,971.95
2024-02-19T00:38:21.316Z,971.90
2024-02-19T00:39:21.303Z,971.90
2024-02-19T00:40:21.341Z,971.89
2024-02-19T00:41:21.274Z,971.89
2024-02-19T00:42:21.291Z,971.85
2024-02-19T00:43:21.272Z,971.91
2024-02-19T00:44:21.231Z,971.90
2024-02-19T00:45:21.260Z,971.89
2024-02-19T00:46:21.231Z,971.88
2024-02-19T00:47:21.410Z,971.87
2024-02-19T00:48:21.244Z,971.88
2024-02-19T00:49:21.277Z,971.89
2024-02-19T00:50:21.301Z,971.89
2024-02-19T00:51:21.202Z,971.86
2024-02-19T00:52:21.258Z,971.88
2024-02-19T00:53:21.163Z,971.88
2024-02-19T00:54:21.126Z,971.89
2024-02-19T00:55:21.153Z,971.93
2024-02-19T00:56:21.117Z,971.96
2024-02-19T00:57:21.081Z,971.97
2024-02-19T00:58:21.173Z,971.95
2024-02-19T00:59:21.151Z,971.91
2024-02-19T01:00:21.104Z,971.88
2024-02-19T01:01:21.154Z,971.84
2024-02-19T01:02:21.054Z,971.81
2024-02-19T01:03:21.062Z,971.79
2024-02-19T01:04:21.174Z,971.78
2024-02-19T01:05:21.054Z,971.79
2024-02-19T01:06:21.052Z,971.82
2024-02-19T01:07:21.038Z,971.83
2024-02-19T01:08:21.015Z,971.83
2024-02-19T01:09:20.973Z,971.81
2024-02-19T01:10:21.114Z,971.79
2024-02-19T01:11:20.981Z,971.78
2024-02-19T01:12:20.977Z,971.76
2024-02-19T01:13:21.011Z,971.75
2024-02-19T01:14:20.918Z,971.79
2024-02-19T01:15:20.996Z,971.84
2024-02-19T01:16:20.969Z,971.86
2024-02-19T01:17:20.901Z,971.88
2024-02-19T01:18:20.923Z,971.89
2024-02-19T01:19:21.046Z,971.92
2024-02-19T01:20:20.884Z,971.94
2024-02-19T01:21:20.849Z,971.93
2024-02-19T01:22:20.966Z,971.92
2024-02-19T01:23:20.857Z,971.93
2024-02-19T01:24:20.828Z,971.93
2024-02-19T01:25:20.908Z,971.96
2024-02-19T01:26:20.790Z,971.97
2024-02-19T01:27:20.788Z,971.97
2024-02-19T01:28:20.800Z,971.99
2024-02-19T01:29:20.808Z,971.96
2024-02-19T01:30:20.778Z,971.98
2024-02-19T01:31:20.786Z,972.00
2024-02-19T01:32:20.746Z,972.00
2024-02-19T01:33:20.773Z,972.00
2024-02-19T01:34:20.894Z,971.99
2024-02-19T01:35:20.725Z,972.00
2024-02-19T01:36:20.737Z,971.99
2024-02-19T01:37:20.768Z,971.98
2024-02-19T01:38:20.717Z,971.98
2024-02-19T01:39:20.678Z,971.98
2024-02-19T01:40:20.742Z,972.03
2024-02-19T01:41:20.657Z,972.03
2024-02-19T01:42:20.633Z,972.04
2024-02-19T01:43:20.696Z,972.06
2024-02-19T01:44:20.611Z,972.04
2024-02-19T01:45:20.627Z,972.03
2024-02-19T01:46:20.672Z,972.03
2024-02-19T01:47:20.594Z,972.05
2024-02-19T01:48:20.708Z,972.04
2024-02-19T01:49:20.845Z,972.04
2024-02-19T01:50:20.597Z,972.01
2024-02-19T01:51:20.541Z,972.00
2024-02-19T01:52:20.598Z,971.98
2024-02-19T01:53:20.537Z,971.98
2024-02-19T01:54:20.599Z,971.96
2024-02-19T01:55:20.532Z,971.98
2024-02-19T01:56:20.507Z,971.99
2024-02-19T01:57:20.495Z,972.00
2024-02-19T01:58:20.642Z,971.97
2024-02-19T01:59:20.501Z,971.98
2024-02-19T02:00:20.461Z,971.96
2024-02-19T02:01:20.572Z,971.98
2024-02-19T02:02:20.461Z,972.01
2024-02-19T02:03:20.523Z,972.02
2024-02-19T02:04:20.539Z,972.01
2024-02-19T02:05:20.415Z,972.03
2024-02-19T02:06:20.551Z,972.03
2024-02-19T02:07:20.413Z,972.02
2024-02-19T02:08:20.400Z,971.99
2024-02-19T02:09:20.366Z,972.00
2024-02-19T02:10:20.386Z,971.97
2024-02-19T02:11:20.383Z,971.99
2024-02-19T02:12:20.330Z,971.99
2024-02-19T02:13:20.482Z,971.98
2024-02-19T02:14:20.312Z,971.96
2024-02-19T02:15:20.339Z,971.96
2024-02-19T02:16:20.343Z,971.95
2024-02-19T02:17:20.276Z,971.92
2024-02-19T02:18:20.390Z,971.91
2024-02-19T02:19:20.318Z,971.89
2024-02-19T02:20:20.257Z,971.91
2024-02-19T02:21:20.224Z,971.92
2024-02-19T02:22:20.311Z,971.92
2024-02-19T02:23:20.234Z,971.91
2024-02-19T02:24:20.229Z,971.92
2024-02-19T02:25:20.338Z,971.92
2024-02-19T02:26:20.273Z,971.93
2024-02-19T02:27:20.183Z,971.93
2024-02-19T02:28:20.256Z,971.94
2024-02-19T02:29:20.172Z,971.91
2024-02-19T02:30:20.162Z,971.91
2024-02-19T02:31:20.298Z,971.92
2024-02-19T02:32:20.127Z,971.93
2024-02-19T02:33:20.234Z,971.94
2024-02-19T02:34:20.340Z,971.95
2024-02-19T02:35:20.102Z,971.95
2024-02-19T02:36:20.104Z,971.96
2024-02-19T02:37:20.172Z,971.96
2024-02-19T02:38:20.098Z,971.95
2024-02-19T02:39:20.110Z,971.94
2024-02-19T02:40:20.203Z,971.94
2024-02-19T02:41:20.026Z,971.96
2024-02-19T02:42:20.047Z,971.96
2024-02-19T02:43:20.122Z,971.97
2024-02-19T02:44:20.079Z,971.99
2024-02-19T02:45:19.987Z,972.03
2024-02-19T02:46:20.205Z,972.05
2024-02-19T02:47:19.993Z,972.08
2024-02-19T02:48:20.046Z,972.08
2024-02-19T02:49:20.092Z,972.06
2024-02-19T02:50:19.941Z,972.04
2024-02-19T02:51:19.934Z,972.00
2024-02-19T02:52:19.993Z,972.00
2024-02-19T02:53:19.923Z,971.99
2024-02-19T02:54:19.917Z,971.99
2024-02-19T02:55:19.956Z,972.00
2024-02-19T02:56:19.888Z,971.99
2024-02-19T02:57:19.882Z,971.98
2024-02-19T02:58:19.924Z,971.96
2024-02-19T02:59:19.856Z,971.95
2024-02-19T03:00:19.843Z,971.94
2024-02-19T03:01:20.012Z,971.93
2024-02-19T03:02:19.834Z,971.93
2024-02-19T03:03:19.828Z,971.93
2024-02-19T03:04:19.937Z,971.93
2024-02-19T03:05:19.819Z,971.94
2024-02-19T03:06:19.817Z,971.96
2024-02-19T03:07:19.880Z,971.96
2024-02-19T03:08:19.754Z,971.92
2024-02-19T03:09:19.735Z,971.90
2024-02-19T03:10:19.783Z,971.91
2024-02-19T03:11:19.796Z,971.92
2024-02-19T03:12:19.724Z,971.90
2024-02-19T03:13:19.731Z,971.89
2024-02-19T03:14:19.709Z,971.89
2024-02-19T03:15:19.703Z,971.89
2024-02-19T03:16:19.773Z,971.87
2024-02-19T03:17:19.727Z,971.85
2024-02-19T03:18:19.787Z,971.86
2024-02-19T03:19:19.942Z,971.87
2024-02-19T03:20:19.886Z,971.88
2024-02-19T03:21:19.765Z,971.89
2024-02-19T03:22:19.655Z,971.91
2024-02-19T03:23:19.614Z,971.92
2024-02-19T03:24:19.601Z,971.92
2024-02-19T03:25:19.619Z,971.91
2024-02-19T03:26:31.349Z,971.90
2024-02-19T03:27:19.565Z,971.93
2024-02-19T03:28:19.593Z,971.91
2024-02-19T03:29:19.553Z,971.91
2024-02-19T03:30:19.531Z,971.91
2024-02-19T03:31:19.542Z,971.94
2024-02-19T03:32:19.550Z,971.97
2024-02-19T03:33:19.574Z,971.97
2024-02-19T03:34:19.590Z,971.98
2024-02-19T03:35:19.487Z,971.98
2024-02-19T03:36:19.474Z,971.99
2024-02-19T03:37:19.535Z,971.99
2024-02-19T03:38:19.552Z,972.00
2024-02-19T03:39:19.465Z,971.99
2024-02-19T03:40:19.506Z,971.97
2024-02-19T03:41:19.413Z,971.96
2024-02-19T03:42:19.421Z,971.96
2024-02-19T03:43:19.506Z,971.95
2024-02-19T03:44:19.412Z,971.94
2024-02-19T03:45:19.379Z,971.92
2024-02-19T03:46:19.419Z,971.92
2024-02-19T03:47:19.378Z,971.92
2024-02-19T03:48:19.434Z,971.94
2024-02-19T03:49:19.503Z,971.95
2024-02-19T03:50:19.364Z,971.95
2024-02-19T03:51:19.350Z,971.97
2024-02-19T03:52:19.326Z,971.97
2024-02-19T03:53:19.313Z,971.99
2024-02-19T03:54:19.314Z,972.01
2024-02-19T03:55:19.386Z,972.02
2024-02-19T03:56:19.480Z,972.02
2024-02-19T03:57:19.287Z,972.03
2024-02-19T03:58:19.349Z,972.04
2024-02-19T03:59:19.263Z,972.05
2024-02-19T04:00:19.228Z,972.06
2024-02-19T04:01:19.324Z,972.06
2024-02-19T04:02:19.210Z,972.06
2024-02-19T04:03:19.257Z,972.05
2024-02-19T04:04:19.321Z,972.04
2024-02-19T04:05:19.188Z,972.05
2024-02-19T04:06:19.186Z,972.07
2024-02-19T04:07:19.185Z,972.08
2024-02-19T04:08:19.214Z,972.08
2024-02-19T04:09:19.135Z,972.08
2024-02-19T04:10:19.155Z,972.09
2024-02-19T04:11:19.113Z,972.11
2024-02-19T04:12:19.108Z,972.10
2024-02-19T04:13:19.160Z,972.10
2024-02-19T04:14:19.088Z,972.11
2024-02-19T04:15:19.077Z,972.12
2024-02-19T04:16:19.133Z,972.13
2024-02-19T04:17:19.072Z,972.14
2024-02-19T04:18:19.100Z,972.16
2024-02-19T04:19:19.034Z,972.17
2024-02-19T04:20:19.038Z,972.20
2024-02-19T04:21:19.044Z,972.19
2024-02-19T04:22:19.102Z,972.18
2024-02-19T04:23:19.016Z,972.19
2024-02-19T04:24:18.985Z,972.18
2024-02-19T04:25:19.018Z,972.20
2024-02-19T04:26:19.004Z,972.19
2024-02-19T04:27:19.031Z,972.19
2024-02-19T04:28:19.014Z,972.19
2024-02-19T04:29:18.939Z,972.19
2024-02-19T04:30:18.950Z,972.18
2024-02-19T04:31:18.993Z,972.19
2024-02-19T04:32:18.905Z,972.19
2024-02-19T04:33:19.073Z,972.19
2024-02-19T04:34:19.027Z,972.20
2024-02-19T04:35:18.884Z,972.19
2024-02-19T04:36:18.896Z,972.16
2024-02-19T04:37:19.017Z,972.17
2024-02-19T04:38:18.833Z,972.15
2024-02-19T04:39:18.846Z,972.16
2024-02-19T04:40:18.878Z,972.18
2024-02-19T04:41:18.863Z,972.16
2024-02-19T04:42:18.828Z,972.19
2024-02-19T04:43:18.840Z,972.20
2024-02-19T04:44:18.788Z,972.20
2024-02-19T04:45:18.816Z,972.21
2024-02-19T04:46:18.804Z,972.23
2024-02-19T04:47:18.746Z,972.22
2024-02-19T04:48:18.736Z,972.20
2024-02-19T04:49:18.996Z,972.24
2024-02-19T04:50:18.817Z,972.22
2024-02-19T04:51:18.708Z,972.24
2024-02-19T04:52:18.833Z,972.27
2024-02-19T04:53:18.686Z,972.28
2024-02-19T04:54:18.680Z,972.30
2024-02-19T04:55:18.755Z,972.32
2024-02-19T04:56:18.676Z,972.34
2024-02-19T04:57:18.682Z,972.35
2024-02-19T04:58:18.766Z,972.36
2024-02-19T04:59:18.628Z,972.37
2024-02-19T05:00:18.617Z,972.36
2024-02-19T05:01:18.667Z,972.37
2024-02-19T05:02:18.636Z,972.33
2024-02-19T05:03:18.787Z,972.33
2024-02-19T05:04:18.738Z,972.34
2024-02-19T05:05:18.624Z,972.38
2024-02-19T05:06:18.650Z,972.39
2024-02-19T05:07:18.716Z,972.39
2024-02-19T05:08:18.553Z,972.38
2024-02-19T05:09:18.533Z,972.35
2024-02-19T05:10:18.621Z,972.34
2024-02-19T05:11:18.551Z,972.32
2024-02-19T05:12:18.525Z,972.32
2024-02-19T05:13:18.546Z,972.32
2024-02-19T05:14:18.504Z,972.35
2024-02-19T05:15:18.449Z,972.38
2024-02-19T05:16:18.682Z,972.37
2024-02-19T05:17:18.431Z,972.39
2024-02-19T05:18:18.508Z,972.39
2024-02-19T05:19:18.686Z,972.40
2024-02-19T05:20:18.505Z,972.43
2024-02-19T05:21:18.517Z,972.44
2024-02-19T05:22:18.482Z,972.44
2024-02-19T05:23:18.497Z,972.45
2024-02-19T05:24:18.379Z,972.45
2024-02-19T05:25:18.450Z,972.46
2024-02-19T05:26:18.354Z,972.48
2024-02-19T05:27:18.279Z,972.49
2024-02-19T05:28:18.421Z,972.48
2024-02-19T05:29:18.314Z,972.50
2024-02-19T05:30:18.311Z,972.52
2024-02-19T05:31:18.342Z,972.53
2024-02-19T05:32:20.370Z,972.53
2024-02-19T05:33:18.321Z,972.54
2024-02-19T05:34:18.297Z,972.56
2024-02-19T05:35:18.306Z,972.56
2024-02-19T05:36:18.270Z,972.56
2024-02-19T05:37:18.330Z,972.56
2024-02-19T05:38:18.255Z,972.57
2024-02-19T05:39:18.200Z,972.57
2024-02-19T05:40:18.272Z,972.57
2024-02-19T05:41:18.267Z,972.57
2024-02-19T05:42:18.196Z,972.60
2024-02-19T05:43:18.350Z,972.60
2024-02-19T05:44:18.175Z,972.60
2024-02-19T05:45:18.147Z,972.59
2024-02-19T05:46:18.240Z,972.62
2024-02-19T05:47:18.144Z,972.61
2024-02-19T05:48:18.210Z,972.61
2024-02-19T05:49:18.314Z,972.62
2024-02-19T05:50:18.651Z,972.62
2024-02-19T05:51:18.095Z,972.63
2024-02-19T05:52:18.157Z,972.63
2024-02-19T05:53:18.161Z,972.61
2024-02-19T05:54:18.056Z,972.63
2024-02-19T05:55:18.122Z,972.61
2024-02-19T05:56:18.039Z,972.63
2024-02-19T05:57:17.967Z,972.62
2024-02-19T05:58:18.153Z,972.62
2024-02-19T05:59:17.993Z,972.63
2024-02-19T06:00:17.996Z,972.65
2024-02-19T06:01:18.559Z,972.67
2024-02-19T06:02:18.042Z,972.67
2024-02-19T06:03:18.016Z,972.68
2024-02-19T06:04:18.300Z,972.67
2024-02-19T06:05:18.065Z,972.66
2024-02-19T06:06:18.040Z,972.67
2024-02-19T06:07:17.923Z,972.67
2024-02-19T06:08:17.939Z,972.67
2024-02-19T06:09:17.849Z,972.66
2024-02-19T06:10:17.954Z,972.67
2024-02-19T06:11:17.859Z,972.68
2024-02-19T06:12:17.812Z,972.69
2024-02-19T06:13:17.886Z,972.68
2024-02-19T06:14:17.828Z,972.69
2024-02-19T06:15:17.767Z,972.73
2024-02-19T06:16:17.854Z,972.73
2024-02-19T06:17:17.741Z,972.75
2024-02-19T06:18:17.868Z,972.75
2024-02-19T06:19:17.870Z,972.77
2024-02-19T06:20:17.761Z,972.79
2024-02-19T06:21:17.702Z,972.79
2024-02-19T06:22:24.193Z,972.79
2024-02-19T06:23:17.728Z,972.80
2024-02-19T06:24:17.717Z,972.82
2024-02-19T06:25:17.706Z,972.79
2024-02-19T06:26:18.603Z,972.83
2024-02-19T06:27:17.686Z,972.84
2024-02-19T06:28:17.791Z,972.87
2024-02-19T06:29:17.636Z,972.90
2024-02-19T06:30:17.649Z,972.88
2024-02-19T06:31:17.680Z,972.91
2024-02-19T06:32:17.647Z,972.95
2024-02-19T06:33:17.742Z,972.91
2024-02-19T06:34:17.725Z,972.94
2024-02-19T06:35:17.644Z,972.94
2024-02-19T06:36:17.547Z,972.95
2024-02-19T06:37:17.680Z,972.92
2024-02-19T06:38:17.549Z,972.94
2024-02-19T06:39:17.536Z,972.95
2024-02-19T06:40:17.544Z,972.97
2024-02-19T06:41:17.498Z,973.00
2024-02-19T06:42:17.523Z,973.00
2024-02-19T06:43:17.528Z,973.01
2024-02-19T06:44:17.497Z,973.04
2024-02-19T06:45:17.467Z,973.04
2024-02-19T06:46:17.485Z,973.07
2024-02-19T06:47:17.456Z,973.06
2024-02-19T06:48:17.527Z,973.08
2024-02-19T06:49:17.575Z,973.11
2024-02-19T06:50:17.499Z,973.11
2024-02-19T06:51:17.434Z,973.16
2024-02-19T06:52:17.437Z,973.17
2024-02-19T06:53:17.379Z,973.20
2024-02-19T06:54:17.372Z,973.20
2024-02-19T06:55:17.453Z,973.22
2024-02-19T06:56:17.495Z,973.22
2024-02-19T06:57:17.342Z,973.26
2024-02-19T06:58:17.335Z,973.26
2024-02-19T06:59:17.338Z,973.27
2024-02-19T07:00:17.350Z,973.23
2024-02-19T07:01:17.447Z,973.24
2024-02-19T07:02:17.340Z,973.22
2024-02-19T07:03:17.284Z,973.20
2024-02-19T07:04:17.338Z,973.19
2024-02-19T07:05:17.367Z,973.18
2024-02-19T07:06:17.288Z,973.18
2024-02-19T07:07:17.263Z,973.19
2024-02-19T07:08:17.235Z,973.23
2024-02-19T07:09:17.241Z,973.23
2024-02-19T07:10:17.308Z,973.30
2024-02-19T07:11:17.234Z,973.30
2024-02-19T07:12:17.215Z,973.36
2024-02-19T07:13:17.244Z,973.40
2024-02-19T07:14:17.182Z,973.40
2024-02-19T07:15:17.167Z,973.42
2024-02-19T07:16:17.163Z,973.47
2024-02-19T07:17:17.180Z,973.49
2024-02-19T07:18:17.172Z,973.52
2024-02-19T07:19:17.223Z,973.52
2024-02-19T07:20:17.191Z,973.54
2024-02-19T07:21:17.107Z,973.53
2024-02-19T07:22:17.222Z,973.56
2024-02-19T07:23:17.076Z,973.58
2024-02-19T07:24:17.100Z,973.58
2024-02-19T07:25:21.388Z,973.59
2024-02-19T07:26:17.125Z,973.61
2024-02-19T07:27:17.026Z,973.62
2024-02-19T07:28:17.013Z,973.63
2024-02-19T07:29:17.058Z,973.67
2024-02-19T07:30:17.054Z,973.66
2024-02-19T07:31:17.074Z,973.66
2024-02-19T07:32:16.962Z,973.68
2024-02-19T07:33:17.041Z,973.67
2024-02-19T07:34:17.096Z,973.68
2024-02-19T07:35:17.111Z,973.68
2024-02-19T07:36:17.832Z,973.68
2024-02-19T07:37:16.974Z,973.67
2024-02-19T07:38:16.925Z,973.69
2024-02-19T07:39:16.909Z,973.70
2024-02-19T07:40:17.002Z,973.72
2024-02-19T07:41:16.884Z,973.71
2024-02-19T07:42:16.881Z,973.72
2024-02-19T07:43:16.919Z,973.72
2024-02-19T07:44:16.904Z,973.73
2024-02-19T07:45:16.845Z,973.75
2024-02-19T07:46:16.871Z,973.76
2024-02-19T07:47:16.847Z,973.77
2024-02-19T07:48:17.023Z,973.79
2024-02-19T07:49:16.871Z,973.81
2024-02-19T07:50:16.831Z,973.83
2024-02-19T07:51:16.799Z,973.81
2024-02-19T07:52:16.799Z,973.83
2024-02-19T07:53:18.051Z,973.82
2024-02-19T07:54:16.738Z,973.84
2024-02-19T07:55:16.804Z,973.85
2024-02-19T07:56:16.716Z,973.86
2024-02-19T07:57:16.726Z,973.87
2024-02-19T07:58:16.731Z,973.87
2024-02-19T07:59:16.701Z,973.90
2024-02-19T08:00:16.686Z,973.90
2024-02-19T08:01:16.817Z,973.91
2024-02-19T08:02:16.745Z,973.93
2024-02-19T08:03:17.672Z,973.96
2024-02-19T08:04:16.820Z,974.01
2024-02-19T08:05:16.847Z,974.04
2024-02-19T08:06:16.667Z,974.03
2024-02-19T08:07:18.254Z,974.05
2024-02-19T08:08:17.212Z,974.08
2024-02-19T08:09:17.344Z,974.06
2024-02-19T08:10:16.706Z,974.07
2024-02-19T08:11:17.411Z,974.09
2024-02-19T08:12:16.751Z,974.09
2024-02-19T08:13:16.877Z,974.09
2024-02-19T08:14:16.705Z,974.12
2024-02-19T08:15:16.553Z,974.12
2024-02-19T08:16:16.662Z,974.10
2024-02-19T08:17:16.516Z,974.12
2024-02-19T08:18:16.608Z,974.11
2024-02-19T08:19:16.680Z,974.10
2024-02-19T08:20:16.535Z,974.12
2024-02-19T08:21:16.501Z,974.13
2024-02-19T08:22:16.497Z,974.16
2024-02-19T08:23:16.443Z,974.18
2024-02-19T08:24:16.452Z,974.18
2024-02-19T08:25:16.526Z,974.19
2024-02-19T08:26:16.460Z,974.21
2024-02-19T08:27:16.407Z,974.19
2024-02-19T08:28:16.431Z,974.19
2024-02-19T08:29:16.395Z,974.19
2024-02-19T08:30:16.385Z,974.19
2024-02-19T08:31:16.426Z,974.22
2024-02-19T08:32:16.404Z,974.22
2024-02-19T08:33:16.353Z,974.20
2024-02-19T08:34:18.087Z,974.22
2024-02-19T08:35:16.415Z,974.25
2024-02-19T08:36:16.367Z,974.28
2024-02-19T08:37:16.337Z,974.32
2024-02-19T08:38:16.297Z,974.33
2024-02-19T08:39:16.863Z,974.38
2024-02-19T08:40:16.345Z,974.41
2024-02-19T08:41:16.257Z,974.42
2024-02-19T08:42:16.287Z,974.47
2024-02-19T08:43:16.287Z,974.47
2024-02-19T08:44:16.238Z,974.46
2024-02-19T08:45:18.623Z,974.47
2024-02-19T08:46:16.275Z,974.47
2024-02-19T08:47:16.206Z,974.48
2024-02-19T08:48:16.297Z,974.48
2024-02-19T08:49:16.276Z,974.50
2024-02-19T08:50:16.259Z,974.50
2024-02-19T08:51:16.182Z,974.49
2024-02-19T08:52:16.210Z,974.50
2024-02-19T08:53:16.162Z,974.47
2024-02-19T08:54:16.185Z,974.49
2024-02-19T08:55:16.154Z,974.51
2024-02-19T08:56:16.107Z,974.49
2024-02-19T08:57:16.122Z,974.51
2024-02-19T08:58:16.172Z,974.53
2024-02-19T08:59:16.129Z,974.55
2024-02-19T09:00:16.073Z,974.58
2024-02-19T09:01:16.209Z,974.58
2024-02-19T09:02:16.138Z,974.59
2024-02-19T09:03:16.077Z,974.60
2024-02-19T09:04:16.155Z,974.60
2024-02-19T09:05:16.102Z,974.60
2024-02-19T09:06:16.113Z,974.62
2024-02-19T09:07:16.156Z,974.61
2024-02-19T09:08:15.997Z,974.64
2024-02-19T09:09:15.982Z,974.64
2024-02-19T09:10:16.183Z,974.65
2024-02-19T09:11:16.021Z,974.65
2024-02-19T09:12:15.966Z,974.66
2024-02-19T09:13:16.004Z,974.68
2024-02-19T09:14:15.936Z,974.66
2024-02-19T09:15:15.945Z,974.65
2024-02-19T09:16:15.983Z,974.67
2024-02-19T09:17:15.908Z,974.65
2024-02-19T09:18:15.970Z,974.64
2024-02-19T09:19:15.973Z,974.64
2024-02-19T09:20:15.934Z,974.65
2024-02-19T09:21:15.886Z,974.66
2024-02-19T09:22:15.916Z,974.67
2024-02-19T09:23:15.870Z,974.67
2024-02-19T09:24:15.827Z,974.70
2024-02-19T09:25:15.924Z,974.68
2024-02-19T09:26:15.821Z,974.69
2024-02-19T09:27:15.828Z,974.66
2024-02-19T09:28:15.819Z,974.67
2024-02-19T09:29:17.353Z,974.67
2024-02-19T09:30:15.779Z,974.66
2024-02-19T09:31:15.837Z,974.67
2024-02-19T09:32:15.745Z,974.66
2024-02-19T09:33:15.894Z,974.63
2024-02-19T09:34:15.789Z,974.61
2024-02-19T09:35:15.778Z,974.62
2024-02-19T09:36:15.727Z,974.65
2024-02-19T09:37:15.751Z,974.64
2024-02-19T09:38:15.738Z,974.65
2024-02-19T09:39:15.688Z,974.65
2024-02-19T09:40:15.745Z,974.66
2024-02-19T09:41:15.716Z,974.65
2024-02-19T09:42:15.636Z,974.67
2024-02-19T09:43:15.685Z,974.65
2024-02-19T09:44:15.631Z,974.66
2024-02-19T09:45:15.637Z,974.69
2024-02-19T09:46:15.733Z,974.70
2024-02-19T09:47:15.640Z,974.68
2024-02-19T09:48:15.706Z,974.69
2024-02-19T09:49:15.783Z,974.70
2024-02-19T09:50:15.709Z,974.72
2024-02-19T09:51:21.926Z,974.74
2024-02-19T09:52:15.548Z,974.75
2024-02-19T09:53:15.611Z,974.73
2024-02-19T09:54:15.526Z,974.79
2024-02-19T09:55:15.525Z,974.79
2024-02-19T09:56:15.538Z,974.82
2024-02-19T09:57:15.511Z,974.83
2024-02-19T09:58:15.545Z,974.85
2024-02-19T09:59:15.460Z,974.85
2024-02-19T10:00:15.453Z,974.85
2024-02-19T10:01:15.523Z,974.85
2024-02-19T10:02:15.465Z,974.85
2024-02-19T10:03:15.446Z,974.87
2024-02-19T10:04:15.646Z,974.89
2024-02-19T10:05:15.788Z,974.87
2024-02-19T10:06:15.520Z,974.87
2024-02-19T10:07:15.525Z,974.90
2024-02-19T10:08:15.427Z,974.88
2024-02-19T10:09:15.404Z,974.89
2024-02-19T10:10:15.385Z,974.91
2024-02-19T10:11:15.396Z,974.94
2024-02-19T10:12:15.369Z,974.96
2024-02-19T10:13:15.847Z,975.00
2024-02-19T10:14:15.335Z,975.00
2024-02-19T10:15:15.384Z,975.01
2024-02-19T10:16:15.346Z,975.04
2024-02-19T10:17:15.302Z,975.06
2024-02-19T10:18:15.371Z,975.03
2024-02-19T10:19:15.388Z,975.10
2024-02-19T10:20:15.306Z,975.09
2024-02-19T10:21:15.251Z,975.09
2024-02-19T10:22:15.251Z,975.10
2024-02-19T10:23:15.271Z,975.08
2024-02-19T10:24:15.231Z,975.12
2024-02-19T10:25:15.230Z,975.11
2024-02-19T10:26:15.216Z,975.11
2024-02-19T10:27:15.198Z,975.12
2024-02-19T10:28:15.263Z,975.13
2024-02-19T10:29:15.258Z,975.08
2024-02-19T10:30:15.162Z,975.11
2024-02-19T10:31:15.377Z,975.10
2024-02-19T10:32:15.143Z,975.15
2024-02-19T10:33:15.226Z,975.15
2024-02-19T10:34:15.192Z,975.12
2024-02-19T10:35:15.102Z,975.18
2024-02-19T10:36:15.258Z,975.20
2024-02-19T10:37:15.111Z,975.21
2024-02-19T10:38:15.064Z,975.20
2024-02-19T10:39:15.087Z,975.21
2024-02-19T10:40:15.571Z,975.21
2024-02-19T10:41:15.194Z,975.22
2024-02-19T10:42:15.026Z,975.21
2024-02-19T10:43:15.074Z,975.23
2024-02-19T10:44:14.998Z,975.22
2024-02-19T10:45:15.794Z,975.24
2024-02-19T10:46:15.044Z,975.23
2024-02-19T10:47:15.030Z,975.24
2024-02-19T10:48:15.118Z,975.22
2024-02-19T10:49:15.063Z,975.23
2024-02-19T10:50:15.144Z,975.19
2024-02-19T10:51:15.210Z,975.19
2024-02-19T10:52:14.987Z,975.20
2024-02-19T10:53:15.814Z,975.22
2024-02-19T10:54:14.934Z,975.21
2024-02-19T10:55:17.923Z,975.23
2024-02-19T10:56:14.924Z,975.22
2024-02-19T10:57:14.900Z,975.23
2024-02-19T10:58:15.117Z,975.21
2024-02-19T10:59:14.956Z,975.19
2024-02-19T11:00:15.055Z,975.18
2024-02-19T11:01:16.623Z,975.17
2024-02-19T11:02:14.956Z,975.18
2024-02-19T11:03:15.116Z,975.16
2024-02-19T11:04:14.869Z,975.15
2024-02-19T11:05:14.824Z,975.13
2024-02-19T11:06:14.822Z,975.12
2024-02-19T11:07:14.816Z,975.12
2024-02-19T11:08:14.810Z,975.11
2024-02-19T11:09:14.774Z,975.08
2024-02-19T11:10:14.797Z,975.05
2024-02-19T11:11:14.858Z,975.02
2024-02-19T11:12:14.813Z,974.99
2024-02-19T11:13:14.784Z,974.99
2024-02-19T11:14:14.701Z,974.97
2024-02-19T11:15:14.676Z,974.94
2024-02-19T11:16:14.705Z,974.91
2024-02-19T11:17:14.701Z,974.91
2024-02-19T11:18:15.531Z,974.86
2024-02-19T11:19:14.795Z,974.83
2024-02-19T11:20:14.655Z,974.83
2024-02-19T11:21:14.704Z,974.80
2024-02-19T11:22:14.657Z,974.78
2024-02-19T11:23:14.676Z,974.79
2024-02-19T11:24:14.656Z,974.82
2024-02-19T11:25:14.656Z,974.78
2024-02-19T11:26:14.683Z,974.76
2024-02-19T11:27:14.602Z,974.74
2024-02-19T11:28:14.694Z,974.75
2024-02-19T11:29:14.573Z,974.77
2024-02-19T11:30:14.551Z,974.69
2024-02-19T11:31:14.590Z,974.68
2024-02-19T11:32:14.569Z,974.67
2024-02-19T11:33:14.546Z,974.62
2024-02-19T11:34:14.558Z,974.61
2024-02-19T11:35:14.487Z,974.61
2024-02-19T11:36:14.503Z,974.57
2024-02-19T11:37:14.497Z,974.61
2024-02-19T11:38:14.450Z,974.59
2024-02-19T11:39:14.446Z,974.59
2024-02-19T11:40:14.477Z,974.58
2024-02-19T11:41:14.483Z,974.60
2024-02-19T11:42:14.429Z,974.56
2024-02-19T11:43:14.435Z,974.57
2024-02-19T11:44:14.377Z,974.51
2024-02-19T11:45:14.404Z,974.52
2024-02-19T11:46:14.411Z,974.53
2024-02-19T11:47:14.373Z,974.52
2024-02-19T11:48:14.473Z,974.50
2024-02-19T11:49:14.413Z,974.47
2024-02-19T11:50:14.368Z,974.48
2024-02-19T11:51:14.321Z,974.50
2024-02-19T11:52:14.345Z,974.45
2024-02-19T11:53:14.434Z,974.46
2024-02-19T11:54:14.314Z,974.46
2024-02-19T11:55:14.372Z,974.42
2024-02-19T11:56:14.348Z,974.41
2024-02-19T11:57:14.458Z,974.37
2024-02-19T11:58:14.368Z,974.37
2024-02-19T11:59:14.233Z,974.34
2024-02-19T12:00:14.241Z,974.33
2024-02-19T12:01:14.359Z,974.35
2024-02-19T12:02:14.506Z,974.31
2024-02-19T12:03:14.210Z,974.29
2024-02-19T12:04:14.242Z,974.30
2024-02-19T12:05:14.255Z,974.27
2024-02-19T12:06:14.185Z,974.26
2024-02-19T12:07:14.229Z,974.23
2024-02-19T12:08:14.187Z,974.23
2024-02-19T12:09:14.170Z,974.23
2024-02-19T12:10:14.236Z,974.24
2024-02-19T12:11:14.214Z,974.24
2024-02-19T12:12:14.125Z,974.25
2024-02-19T12:13:14.118Z,974.24
2024-02-19T12:14:14.105Z,974.25
2024-02-19T12:15:14.371Z,974.24
2024-02-19T12:16:14.133Z,974.20
2024-02-19T12:17:14.044Z,974.19
2024-02-19T12:18:14.112Z,974.19
2024-02-19T12:19:14.147Z,974.18
2024-02-19T12:20:14.122Z,974.19
2024-02-19T12:21:14.022Z,974.19
2024-02-19T12:22:14.061Z,974.16
2024-02-19T12:23:21.844Z,974.20
2024-02-19T12:24:13.986Z,974.17
2024-02-19T12:25:14.238Z,974.17
2024-02-19T12:26:14.017Z,974.17
2024-02-19T12:27:14.012Z,974.17
2024-02-19T12:28:14.082Z,974.16